sim
Sign-in with your pilot id or email,
or register
Callsign
Passwort

Schedule Details

Flight Number: OEO5740
Departure: Dusseldorf International Airport (EDDL) at 14:25
Arrival: Munich Airport (EDDM) at 15:40

Weather Information
Getting current METAR information for EDDL 211150Z 08003KT CAVOK 24/06 Q1015 NOSIG
Getting current METAR information for EDDM 211150Z 04004KT 330V110 CAVOK 22/13 Q1016 NOSIG

Schedule Frequency

Route Map